Time;durP1;ratioP1;P1;durP2;ratioP2;P2;SDS_P1;SDS_P2;PMS_P1;PMS_P2;Temp;Humidity;BMP_temperature;BMP_pressure;BME280_temperature;BME280_humidity;BME280_pressure;Samples;Min_cycle;Max_cycle;Signal;HPM_P1;HPM_P2
2022/10/11 00:00:37;;;;;;;30.88;29.17;;;;;;;7.23;100.00;102166.34;5078654;28;20039;-75
2022/10/11 00:03:03;;;;;;;29.05;27.85;;;;;;;7.08;100.00;102144.50;5095238;28;20008;-75
2022/10/11 00:05:28;;;;;;;35.00;33.40;;;;;;;7.01;100.00;102140.56;5094389;28;20088;-74
2022/10/11 00:07:54;;;;;;;35.53;33.85;;;;;;;7.68;100.00;102239.72;5097273;28;20031;-74
2022/10/11 00:10:20;;;;;;;42.72;41.13;;;;;;;7.58;100.00;102219.28;5090542;28;20027;-74
2022/10/11 00:12:46;;;;;;;37.25;35.92;;;;;;;7.81;100.00;102266.91;5088398;28;20059;-74
2022/10/11 00:15:16;;;;;;;42.45;40.38;;;;;;;7.25;100.00;102168.84;5088656;28;20100;-74
2022/10/11 00:17:42;;;;;;;38.53;36.75;;;;;;;7.81;100.00;102267.75;5086356;28;20017;-74
2022/10/11 00:20:08;;;;;;;36.95;35.60;;;;;;;7.17;100.00;102162.31;5096194;28;20040;-75
2022/10/11 00:22:36;;;;;;;34.55;32.92;;;;;;;7.20;100.00;102169.16;5074151;28;20024;-75
2022/10/11 00:25:01;;;;;;;42.90;41.10;;;;;;;7.71;100.00;102255.28;5073123;28;20436;-75
2022/10/11 00:27:26;;;;;;;39.35;37.95;;;;;;;7.09;100.00;102158.47;5092030;28;20027;-74
2022/10/11 00:29:52;;;;;;;41.38;39.53;;;;;;;7.36;100.00;102203.16;5077540;28;20032;-74
2022/10/11 00:32:18;;;;;;;43.60;42.03;;;;;;;7.75;100.00;102278.66;5087214;28;20037;-74
2022/10/11 00:34:43;;;;;;;33.67;32.42;;;;;;;7.75;100.00;102281.28;5080377;28;20015;-75
2022/10/11 00:37:08;;;;;;;37.03;35.63;;;;;;;7.71;100.00;102277.16;5084318;28;20012;-73
2022/10/11 00:39:34;;;;;;;38.22;36.60;;;;;;;7.66;100.00;102273.97;5091564;28;20052;-73
2022/10/11 00:41:59;;;;;;;38.78;37.28;;;;;;;7.61;100.00;102278.69;5071632;28;20025;-73
2022/10/11 00:44:27;;;;;;;39.60;38.13;;;;;;;7.25;100.00;102232.75;5077435;28;20033;-73
2022/10/11 00:47:02;;;;;;;34.33;33.08;;;;;;;7.30;100.00;102254.31;5080026;28;20033;-73
2022/10/11 00:49:41;;;;;;;35.60;34.17;;;;;;;7.43;100.00;102279.81;5089375;28;20048;-73
2022/10/11 00:52:28;;;;;;;28.70;27.60;;;;;;;7.37;100.00;102287.13;5089240;28;20039;-73
2022/10/11 00:54:55;;;;;;;24.73;23.20;;;;;;;7.02;100.00;102249.88;5091429;28;20008;-75
2022/10/11 00:57:25;;;;;;;25.92;24.98;;;;;;;6.80;100.00;102210.97;5096186;28;20022;-73
2022/10/11 00:59:54;;;;;;;26.33;25.38;;;;;;;7.20;100.00;102282.06;5087257;28;20033;-73
2022/10/11 01:02:21;;;;;;;22.95;21.75;;;;;;;7.24;100.00;102288.81;5079326;28;20012;-73
2022/10/11 01:04:48;;;;;;;23.80;22.90;;;;;;;7.19;100.00;102296.13;5077796;28;20080;-73
2022/10/11 01:07:13;;;;;;;22.05;21.25;;;;;;;7.14;100.00;102292.91;5096573;28;20048;-73
2022/10/11 01:09:39;;;;;;;22.50;21.52;;;;;;;6.93;100.00;102260.94;5080150;28;20051;-73
2022/10/11 01:12:13;;;;;;;22.88;21.20;;;;;;;7.03;100.00;102296.19;5082384;28;20116;-73
2022/10/11 01:15:00;;;;;;;22.35;21.05;;;;;;;6.93;100.00;102293.28;5084691;28;20024;-74
2022/10/11 01:17:25;;;;;;;19.88;18.58;;;;;;;6.90;100.00;102295.22;5082820;28;20044;-74
2022/10/11 01:20:09;;;;;;;21.67;20.80;;;;;;;6.85;100.00;102298.13;5086712;28;20043;-74
2022/10/11 01:22:53;;;;;;;17.10;16.20;;;;;;;6.86;100.00;102293.72;5084768;28;20021;-73
2022/10/11 01:25:27;;;;;;;15.00;14.48;;;;;;;6.83;100.00;102293.91;5085962;28;20439;-74
2022/10/11 01:28:29;;;;;;;15.23;14.68;;;;;;;6.78;100.00;102300.25;5085907;28;20033;-75
2022/10/11 01:31:03;;;;;;;14.55;13.13;;;;;;;6.70;100.00;102293.78;5080820;28;20012;-75
2022/10/11 01:33:40;;;;;;;15.93;15.35;;;;;;;6.67;100.00;102299.22;5078236;28;20028;-74
2022/10/11 01:36:26;;;;;;;14.70;14.07;;;;;;;6.55;100.00;102306.88;5088928;28;20092;-74
2022/10/11 01:39:01;;;;;;;13.48;12.95;;;;;;;6.48;100.00;102307.28;5089794;28;20024;-76
2022/10/11 01:41:39;;;;;;;13.95;13.40;;;;;;;6.36;100.00;102295.72;5083460;28;20043;-75
2022/10/11 01:44:06;;;;;;;16.08;15.40;;;;;;;6.50;100.00;102311.50;5086648;28;20028;-75
2022/10/11 01:46:33;;;;;;;13.20;12.73;;;;;;;6.42;100.00;102295.34;5084695;28;20039;-75
2022/10/11 01:49:00;;;;;;;16.42;15.43;;;;;;;6.40;100.00;102291.97;5094221;28;20031;-73
2022/10/11 01:51:30;;;;;;;14.95;14.40;;;;;;;5.64;100.00;102156.47;5093829;28;20023;-73
2022/10/11 01:54:34;;;;;;;16.63;15.83;;;;;;;6.61;100.00;102320.56;5086671;28;20240;-74
2022/10/11 01:57:02;;;;;;;11.48;11.07;;;;;;;6.63;100.00;102318.69;5099296;28;20316;-73
2022/10/11 01:59:34;;;;;;;14.05;13.38;;;;;;;6.65;100.00;102316.81;5089564;28;20029;-75
2022/10/11 02:02:20;;;;;;;14.85;14.23;;;;;;;6.58;100.00;102327.66;5076446;28;20024;-75
2022/10/11 02:05:04;;;;;;;14.90;14.10;;;;;;;6.20;100.00;102293.09;5085141;28;20055;-75
2022/10/11 02:07:32;;;;;;;15.00;14.40;;;;;;;6.18;100.00;102322.06;5082288;28;20027;-75
2022/10/11 02:10:20;;;;;;;14.32;13.43;;;;;;;6.15;100.00;102319.59;5085032;28;20033;-75
2022/10/11 02:13:17;;;;;;;15.18;14.38;;;;;;;6.19;100.00;102325.50;5086398;28;20045;-73
2022/10/11 02:15:46;;;;;;;13.25;12.57;;;;;;;6.07;100.00;102300.81;5093484;28;20019;-74
2022/10/11 02:18:19;;;;;;;13.95;13.32;;;;;;;6.14;100.00;102296.94;5093930;28;20012;-74
2022/10/11 02:20:47;;;;;;;12.77;12.23;;;;;;;6.24;100.00;102312.97;5089119;28;20024;-73
2022/10/11 02:23:22;;;;;;;12.68;12.18;;;;;;;5.64;100.00;102203.59;5091442;28;20020;-74
2022/10/11 02:25:50;;;;;;;14.18;13.38;;;;;;;6.29;100.00;102305.72;5087897;28;20041;-74
2022/10/11 02:28:22;;;;;;;13.57;12.95;;;;;;;6.43;100.00;102332.94;5087637;28;20132;-74
2022/10/11 02:30:49;;;;;;;14.63;14.07;;;;;;;6.34;100.00;102322.03;5090372;28;20012;-75
2022/10/11 02:33:19;;;;;;;13.90;13.38;;;;;;;6.34;100.00;102318.56;5085706;28;20032;-75
2022/10/11 02:35:52;;;;;;;15.82;14.43;;;;;;;6.40;100.00;102323.44;5090271;28;20025;-75
2022/10/11 02:38:29;;;;;;;16.42;15.20;;;;;;;6.42;100.00;102336.47;5089470;28;20024;-74
2022/10/11 02:41:07;;;;;;;11.20;10.50;;;;;;;6.15;100.00;102314.34;5100189;28;20012;-74
2022/10/11 02:43:40;;;;;;;13.90;13.00;;;;;;;6.08;100.00;102306.91;5090006;28;20054;-75
2022/10/11 02:46:07;;;;;;;13.32;12.82;;;;;;;6.03;100.00;102307.16;5095829;28;20020;-74
2022/10/11 02:48:35;;;;;;;12.60;11.70;;;;;;;5.61;100.00;102227.31;5093617;28;20067;-74
2022/10/11 02:51:02;;;;;;;13.25;12.70;;;;;;;6.03;100.00;102294.06;5100006;28;20031;-76
2022/10/11 02:53:27;;;;;;;13.20;12.70;;;;;;;5.97;100.00;102294.41;5064717;28;20024;-76
2022/10/11 02:55:54;;;;;;;13.90;13.10;;;;;;;6.30;100.00;102348.50;5096684;28;20096;-76
2022/10/11 02:58:20;;;;;;;14.90;14.32;;;;;;;6.03;100.00;102296.69;5093917;28;20021;-76
2022/10/11 03:00:45;;;;;;;14.15;13.27;;;;;;;6.31;100.00;102342.31;5094355;28;20036;-75
2022/10/11 03:03:10;;;;;;;12.35;11.90;;;;;;;5.92;100.00;102284.16;5090984;28;20029;-75
2022/10/11 03:05:42;;;;;;;14.65;14.00;;;;;;;6.13;100.00;102325.84;5071255;28;20019;-74
2022/10/11 03:08:09;;;;;;;12.57;12.13;;;;;;;6.09;100.00;102330.41;5088642;28;20029;-74
2022/10/11 03:10:35;;;;;;;13.77;13.07;;;;;;;6.16;100.00;102357.13;5097527;28;20017;-74
2022/10/11 03:13:01;;;;;;;14.35;13.43;;;;;;;5.49;100.00;102244.56;5052753;28;1173926;-74
2022/10/11 03:15:26;;;;;;;12.57;12.02;;;;;;;5.57;100.00;102267.69;5096055;28;20064;-76
2022/10/11 03:17:53;;;;;;;15.65;14.95;;;;;;;6.09;100.00;102354.00;5092494;28;20041;-76
2022/10/11 03:20:18;;;;;;;13.93;13.35;;;;;;;5.54;100.00;102270.50;5089798;28;20043;-76
2022/10/11 03:22:44;;;;;;;13.05;12.55;;;;;;;5.40;100.00;102262.53;5091916;28;20029;-76
2022/10/11 03:25:09;;;;;;;12.10;11.50;;;;;;;5.42;100.00;102264.16;5078493;28;20016;-76
2022/10/11 03:27:36;;;;;;;12.65;11.85;;;;;;;5.43;100.00;102271.06;5088634;28;20028;-74
2022/10/11 03:30:03;;;;;;;13.65;12.60;;;;;;;5.38;100.00;102264.38;5092767;28;20064;-75
2022/10/11 03:32:30;;;;;;;15.20;11.95;;;;;;;5.33;100.00;102248.91;5080808;28;20063;-75
2022/10/11 03:34:57;;;;;;;12.43;11.98;;;;;;;5.71;100.00;102314.13;5091403;28;20067;-75
2022/10/11 03:37:22;;;;;;;10.95;10.57;;;;;;;5.21;100.00;102216.41;5096715;28;20024;-75
2022/10/11 03:39:48;;;;;;;12.77;12.27;;;;;;;5.44;100.00;102253.56;5096172;28;20020;-75
2022/10/11 03:42:14;;;;;;;13.30;12.68;;;;;;;5.73;100.00;102307.88;5098367;28;20024;-76
2022/10/11 03:44:42;;;;;;;13.13;12.32;;;;;;;5.83;100.00;102323.09;5091657;28;20036;-75
2022/10/11 03:47:09;;;;;;;13.00;11.85;;;;;;;6.08;100.00;102364.56;5097036;28;20040;-75
2022/10/11 03:49:36;;;;;;;13.60;13.00;;;;;;;5.91;100.00;102347.09;5091659;28;20016;-75
2022/10/11 03:52:01;;;;;;;13.25;12.75;;;;;;;6.03;100.00;102372.69;5095495;28;20029;-75
2022/10/11 03:54:27;;;;;;;13.18;12.05;;;;;;;5.76;100.00;102333.88;5081798;28;20055;-75
2022/10/11 03:56:53;;;;;;;12.20;11.68;;;;;;;5.24;100.00;102255.47;5096870;28;20027;-75
2022/10/11 03:59:20;;;;;;;13.55;12.80;;;;;;;5.77;100.00;102356.56;5092088;28;20040;-75
2022/10/11 04:01:47;;;;;;;11.23;10.77;;;;;;;5.67;100.00;102334.38;5092970;28;20069;-75
2022/10/11 04:04:12;;;;;;;14.57;13.85;;;;;;;5.23;100.00;102259.03;5091570;28;20086;-75
2022/10/11 04:06:38;;;;;;;14.13;13.55;;;;;;;5.35;100.00;102265.38;5088187;28;20028;-75
2022/10/11 04:09:03;;;;;;;13.20;12.50;;;;;;;5.23;100.00;102238.09;5091530;28;20012;-76
2022/10/11 04:11:31;;;;;;;15.77;15.13;;;;;;;6.07;100.00;102378.59;5099104;28;20037;-75
2022/10/11 04:13:57;;;;;;;15.75;14.45;;;;;;;6.07;100.00;102384.69;5095196;28;20024;-76
2022/10/11 04:16:23;;;;;;;13.68;12.32;;;;;;;6.07;100.00;102382.06;5097909;28;20020;-76
2022/10/11 04:18:48;;;;;;;12.27;11.55;;;;;;;6.09;100.00;102379.38;5096643;28;20095;-75
2022/10/11 04:21:15;;;;;;;13.40;12.73;;;;;;;6.07;100.00;102379.44;5095023;28;20033;-76
2022/10/11 04:23:41;;;;;;;14.48;13.70;;;;;;;6.15;100.00;102392.16;5092372;28;20020;-75
2022/10/11 04:26:07;;;;;;;15.40;14.70;;;;;;;6.15;100.00;102397.38;5089399;28;20024;-75
2022/10/11 04:28:35;;;;;;;14.60;13.57;;;;;;;6.14;100.00;102396.53;5096286;28;20019;-75
2022/10/11 04:31:00;;;;;;;14.80;14.00;;;;;;;6.18;100.00;102402.44;5092274;28;20028;-75
2022/10/11 04:33:30;;;;;;;15.45;14.82;;;;;;;5.49;100.00;102278.59;5091837;28;20080;-75
2022/10/11 04:35:56;;;;;;;13.32;12.63;;;;;;;5.73;100.00;102313.09;5096183;28;20036;-75
2022/10/11 04:38:22;;;;;;;13.10;12.50;;;;;;;5.94;100.00;102344.31;5075802;28;20054;-75
2022/10/11 04:40:48;;;;;;;17.65;16.75;;;;;;;6.12;100.00;102377.44;5087600;28;20055;-74
2022/10/11 04:43:15;;;;;;;15.02;14.50;;;;;;;6.35;100.00;102415.47;5097269;28;20032;-74
2022/10/11 04:45:42;;;;;;;17.05;16.35;;;;;;;6.37;100.00;102412.78;5094771;28;20033;-75
2022/10/11 04:48:09;;;;;;;15.38;14.63;;;;;;;6.37;100.00;102403.13;5099391;28;20020;-75
2022/10/11 04:50:36;;;;;;;14.98;14.02;;;;;;;5.86;100.00;102328.19;5091328;28;20016;-75
2022/10/11 04:53:01;;;;;;;16.42;15.77;;;;;;;6.36;100.00;102411.09;5091996;28;20025;-75
2022/10/11 04:55:33;;;;;;;15.07;14.52;;;;;;;5.46;100.00;102268.28;5084634;28;20128;-75
2022/10/11 04:58:01;;;;;;;15.57;14.95;;;;;;;5.83;100.00;102334.41;5091476;28;20015;-76
2022/10/11 05:00:26;;;;;;;16.98;16.20;;;;;;;6.15;100.00;102403.47;5088423;28;20105;-76
2022/10/11 05:02:54;;;;;;;16.85;16.05;;;;;;;5.93;100.00;102387.19;5091177;28;20013;-75
2022/10/11 05:05:20;;;;;;;15.50;13.60;;;;;;;5.98;100.00;102387.81;5094013;28;20039;-76
2022/10/11 05:07:46;;;;;;;15.88;15.27;;;;;;;5.43;100.00;102306.88;5090037;28;20032;-75
2022/10/11 05:10:12;;;;;;;16.58;15.98;;;;;;;5.53;100.00;102326.41;5091009;28;20048;-75
2022/10/11 05:12:37;;;;;;;16.13;14.93;;;;;;;5.44;100.00;102326.91;5084969;28;20049;-74
2022/10/11 05:15:03;;;;;;;14.20;13.68;;;;;;;6.13;100.00;102425.47;5069418;28;20043;-73
2022/10/11 05:17:28;;;;;;;13.52;13.02;;;;;;;5.75;100.00;102382.00;5085740;28;20009;-74
2022/10/11 05:19:54;;;;;;;15.63;14.73;;;;;;;6.07;100.00;102439.72;5082696;28;20048;-74
2022/10/11 05:22:19;;;;;;;19.15;14.25;;;;;;;6.06;100.00;102445.06;5084109;28;20049;-74
2022/10/11 05:24:44;;;;;;;15.50;14.80;;;;;;;6.05;100.00;102444.19;5086561;28;20047;-74
2022/10/11 05:27:10;;;;;;;15.70;14.80;;;;;;;5.87;100.00;102416.31;5087727;28;20035;-75
2022/10/11 05:29:38;;;;;;;14.88;14.32;;;;;;;6.00;100.00;102443.59;5082601;28;20025;-75
2022/10/11 05:32:03;;;;;;;13.55;12.80;;;;;;;5.87;100.00;102427.66;5067671;28;20036;-77
2022/10/11 05:34:29;;;;;;;13.80;12.80;;;;;;;5.98;100.00;102448.06;5088534;28;20036;-75
2022/10/11 05:36:55;;;;;;;14.90;14.20;;;;;;;6.02;100.00;102460.09;5094134;28;20052;-75
2022/10/11 05:39:21;;;;;;;14.20;13.40;;;;;;;6.04;100.00;102462.66;5084489;28;20062;-75
2022/10/11 05:41:46;;;;;;;16.15;13.95;;;;;;;6.01;100.00;102458.41;5085767;28;20028;-75
2022/10/11 05:44:11;;;;;;;14.20;13.68;;;;;;;5.87;100.00;102446.00;5090683;28;20041;-76
2022/10/11 05:46:37;;;;;;;15.63;15.05;;;;;;;5.75;100.00;102444.03;5071585;28;20032;-75
2022/10/11 05:49:02;;;;;;;15.80;14.73;;;;;;;5.89;100.00;102465.09;5077007;28;20032;-75
2022/10/11 05:51:28;;;;;;;17.02;16.35;;;;;;;5.62;100.00;102424.59;5077852;28;20064;-75
2022/10/11 05:53:53;;;;;;;16.40;15.65;;;;;;;5.88;100.00;102467.78;5072417;28;20029;-75
2022/10/11 05:56:21;;;;;;;15.52;14.52;;;;;;;5.70;100.00;102439.00;5085716;28;20066;-75
2022/10/11 05:58:46;;;;;;;16.13;15.52;;;;;;;5.66;100.00;102442.72;5088875;28;20013;-75
2022/10/11 06:01:30;;;;;;;15.80;15.00;;;;;;;5.67;100.00;102456.66;5088436;28;20020;-75
2022/10/11 06:03:56;;;;;;;18.65;15.85;;;;;;;5.74;100.00;102458.88;5078107;28;20024;-75
2022/10/11 06:06:22;;;;;;;15.50;14.70;;;;;;;5.52;100.00;102430.31;5067674;28;20032;-75
2022/10/11 06:08:48;;;;;;;15.90;15.30;;;;;;;5.53;100.00;102436.41;5082112;28;20047;-75
2022/10/11 06:11:15;;;;;;;17.83;16.83;;;;;;;5.92;100.00;102487.66;5084939;28;20104;-75
2022/10/11 06:13:41;;;;;;;18.10;16.98;;;;;;;5.75;100.00;102460.59;5083888;28;20025;-75
2022/10/11 06:16:07;;;;;;;16.95;15.98;;;;;;;5.10;100.00;102345.19;5091315;28;20017;-75
2022/10/11 06:18:33;;;;;;;17.90;16.45;;;;;;;6.00;100.00;102496.03;5093972;28;20069;-75
2022/10/11 06:20:59;;;;;;;16.60;15.55;;;;;;;5.54;100.00;102401.44;5090033;28;20029;-75
2022/10/11 06:23:26;;;;;;;14.70;14.10;;;;;;;5.84;100.00;102447.94;5082679;28;20009;-75
2022/10/11 06:26:05;;;;;;;15.88;15.27;;;;;;;5.53;100.00;102391.88;5084181;28;20005;-75
2022/10/11 06:28:32;;;;;;;16.85;16.05;;;;;;;5.84;100.00;102429.59;5086022;28;20032;-76
2022/10/11 06:30:58;;;;;;;15.82;15.23;;;;;;;5.62;100.00;102386.19;5079173;28;20024;-74
2022/10/11 06:33:24;;;;;;;20.85;19.65;;;;;;;6.44;100.00;102502.47;5106940;28;20033;-74
2022/10/11 06:36:04;;;;;;;17.45;16.48;;;;;;;6.38;100.00;102475.66;5092360;28;20014;-74
2022/10/11 06:38:29;;;;;;;18.05;17.35;;;;;;;6.56;100.00;102486.91;5075014;28;20056;-74
2022/10/11 06:40:55;;;;;;;21.73;20.85;;;;;;;6.89;100.00;102524.50;5086559;28;20036;-74
2022/10/11 06:43:21;;;;;;;28.60;27.52;;;;;;;7.02;100.00;102519.44;5076221;28;20017;-74
2022/10/11 06:45:47;;;;;;;32.70;31.38;;;;;;;6.54;100.00;102423.19;5088450;28;20088;-74
2022/10/11 06:48:12;;;;;;;39.90;38.42;;;;;;;7.25;100.00;102526.88;5075036;28;20015;-75
2022/10/11 06:50:40;;;;;;;37.67;36.25;;;;;;;7.35;100.00;102533.28;5068081;28;20017;-75
2022/10/11 06:53:06;;;;;;;49.15;47.08;;;;;;;7.50;100.00;102531.53;5086743;28;20066;-76
2022/10/11 06:55:32;;;;;;;50.40;48.55;;;;;;;7.29;100.00;102491.59;5087369;28;20011;-76
2022/10/11 06:57:57;;;;;;;55.67;53.67;;;;;;;7.66;100.00;102531.50;5089864;28;20064;-76
2022/10/11 07:00:23;;;;;;;53.13;51.13;;;;;;;7.72;100.00;102539.03;5070457;28;20037;-76
2022/10/11 07:02:48;;;;;;;60.00;57.53;;;;;;;7.58;100.00;102502.22;5073421;28;20059;-76
2022/10/11 07:05:15;;;;;;;60.28;58.05;;;;;;;7.59;100.00;102504.72;5079247;28;20059;-76
2022/10/11 07:07:41;;;;;;;59.38;57.15;;;;;;;6.95;100.00;102393.78;5097539;28;20004;-75
2022/10/11 07:10:07;;;;;;;53.08;51.05;;;;;;;7.76;100.00;102535.28;5091273;28;20051;-75
2022/10/11 07:12:32;;;;;;;49.35;47.50;;;;;;;7.74;100.00;102523.19;5087445;28;20057;-75
2022/10/11 07:14:57;;;;;;;54.38;51.03;;;;;;;7.93;100.00;102549.22;5087007;28;20091;-75
2022/10/11 07:17:26;;;;;;;52.97;50.90;;;;;;;7.74;100.00;102513.50;5092614;28;20009;-75
2022/10/11 07:19:51;;;;;;;59.58;57.17;;;;;;;7.84;100.00;102534.84;5092066;28;20040;-76
2022/10/11 07:22:17;;;;;;;50.20;48.35;;;;;;;7.50;100.00;102451.88;5089582;28;20021;-76
2022/10/11 07:24:42;;;;;;;56.20;53.50;;;;;;;7.65;100.00;102466.75;5069130;28;20078;-75
2022/10/11 07:27:07;;;;;;;58.72;56.03;;;;;;;8.21;100.00;102557.16;5068804;28;20040;-75
2022/10/11 07:29:33;;;;;;;52.42;50.38;;;;;;;7.73;100.00;102459.25;5091009;28;20081;-75
2022/10/11 07:31:58;;;;;;;58.83;56.42;;;;;;;8.40;100.00;102564.78;5094444;28;20084;-76
2022/10/11 07:34:24;;;;;;;54.20;52.13;;;;;;;8.54;100.00;102569.22;5096139;28;20009;-76
2022/10/11 07:36:49;;;;;;;55.15;52.88;;;;;;;8.70;100.00;102576.16;5095201;28;20067;-76
2022/10/11 07:39:14;;;;;;;58.45;55.80;;;;;;;8.46;100.00;102528.53;5080939;28;20028;-75
2022/10/11 07:41:40;;;;;;;50.83;48.95;;;;;;;8.65;100.00;102537.81;5080612;28;20116;-75
2022/10/11 07:44:05;;;;;;;61.35;58.88;;;;;;;8.87;100.00;102525.94;5092669;28;20096;-75
2022/10/11 07:46:32;;;;;;;63.22;60.58;;;;;;;8.82;100.00;102455.16;5089771;28;20028;-77
2022/10/11 07:48:57;;;;;;;76.22;73.05;;;;;;;9.76;100.00;102533.28;5074612;28;20028;-76
2022/10/11 07:51:24;;;;;;;90.72;87.40;;;;;;;10.42;100.00;102483.06;5085218;28;20492;-76
2022/10/11 07:53:54;;;;;;;61.40;58.50;;;;;;;11.28;97.46;102476.81;5061159;28;20025;-76
2022/10/11 07:56:25;;;;;;;39.97;38.03;;;;;;;13.02;91.99;102585.13;5076253;28;20016;-76
2022/10/11 07:58:53;;;;;;;9.13;7.80;;;;;;;13.89;85.54;102590.38;5071678;28;20032;-76
2022/10/11 08:01:19;;;;;;;6.55;3.40;;;;;;;14.69;81.73;102583.56;5083721;28;20063;-76
2022/10/11 08:03:45;;;;;;;5.03;2.30;;;;;;;15.86;78.67;102583.75;5082198;28;20017;-76
2022/10/11 08:06:13;;;;;;;6.38;2.00;;;;;;;16.90;77.70;102589.84;5079181;28;20064;-76
2022/10/11 08:08:39;;;;;;;6.25;1.60;;;;;;;17.69;69.81;102598.97;5074900;28;20033;-76
2022/10/11 08:11:04;;;;;;;3.17;1.02;;;;;;;17.27;68.17;102592.41;5076717;28;20035;-76
2022/10/11 08:13:30;;;;;;;4.50;1.00;;;;;;;16.37;71.76;102587.81;5066346;28;20132;-76
2022/10/11 08:15:56;;;;;;;6.90;1.70;;;;;;;16.14;73.14;102597.97;5083564;28;20078;-75
2022/10/11 08:18:21;;;;;;;3.42;1.70;;;;;;;16.15;72.71;102583.66;5073487;28;20041;-75
2022/10/11 08:20:47;;;;;;;2.53;1.42;;;;;;;15.84;74.27;102602.50;5072260;28;20086;-75
2022/10/11 08:23:12;;;;;;;2.97;1.40;;;;;;;15.74;75.41;102597.22;5057841;28;20024;-75
2022/10/11 08:25:41;;;;;;;1.33;1.20;;;;;;;15.49;76.57;102593.25;5064170;28;20025;-75
2022/10/11 08:28:06;;;;;;;5.70;1.30;;;;;;;15.14;77.30;102594.63;5072869;28;20021;-75
2022/10/11 08:30:33;;;;;;;4.05;1.67;;;;;;;14.95;78.25;102586.59;5075024;28;20024;-76
2022/10/11 08:32:59;;;;;;;5.85;1.63;;;;;;;14.92;77.53;102590.38;5076855;28;20041;-75
2022/10/11 08:35:24;;;;;;;4.43;1.38;;;;;;;14.86;78.03;102600.72;5074217;28;20036;-75
2022/10/11 08:37:49;;;;;;;7.38;1.55;;;;;;;15.06;78.27;102575.00;5073617;28;20037;-75
2022/10/11 08:40:18;;;;;;;5.05;1.58;;;;;;;15.71;76.49;102600.13;5057569;28;20108;-75
2022/10/11 08:43:01;;;;;;;3.55;1.85;;;;;;;15.41;76.29;102611.72;5081768;28;20025;-75
2022/10/11 08:45:41;;;;;;;4.90;2.10;;;;;;;14.88;79.34;102594.28;5071786;28;20024;-75
2022/10/11 08:48:27;;;;;;;3.03;1.60;;;;;;;15.16;78.83;102605.97;5090718;28;20020;-75
2022/10/11 08:50:53;;;;;;;5.80;2.15;;;;;;;15.27;79.68;102614.81;5065569;28;20331;-75
2022/10/11 08:53:48;;;;;;;4.95;2.33;;;;;;;14.97;80.53;102619.19;5074074;28;20028;-75
2022/10/11 08:56:15;;;;;;;3.58;2.17;;;;;;;16.79;78.94;102614.03;5066730;28;20043;-75
2022/10/11 08:59:05;;;;;;;7.43;3.33;;;;;;;19.70;70.68;102619.94;5062191;28;20020;-75
2022/10/11 09:01:31;;;;;;;4.33;1.60;;;;;;;21.69;62.11;102625.25;5066339;28;20097;-75
2022/10/11 09:03:58;;;;;;;3.28;1.30;;;;;;;23.26;58.92;102622.50;5058646;28;20438;-75
2022/10/11 09:06:55;;;;;;;3.35;1.00;;;;;;;23.48;57.91;102634.94;5062948;28;20016;-75
2022/10/11 09:09:55;;;;;;;3.22;1.45;;;;;;;25.36;53.21;102637.75;5069571;28;20381;-77
2022/10/11 09:12:53;;;;;;;4.38;0.82;;;;;;;27.05;50.53;102636.25;5008013;28;20952;-78
2022/10/11 09:15:45;;;;;;;3.90;1.10;;;;;;;26.00;50.00;102634.47;4999398;28;20026;-78
2022/10/11 09:18:49;;;;;;;4.57;1.02;;;;;;;25.72;49.26;102642.78;5002553;28;20034;-78
2022/10/11 09:21:37;;;;;;;3.60;0.90;;;;;;;25.38;52.15;102639.19;4968303;28;20046;-78
2022/10/11 09:24:20;;;;;;;3.85;1.00;;;;;;;27.62;49.10;102644.44;4967440;28;20062;-78
2022/10/11 09:26:48;;;;;;;4.82;1.05;;;;;;;28.57;47.61;102646.91;4966840;28;20085;-78
2022/10/11 09:29:23;;;;;;;5.57;1.02;;;;;;;29.28;44.99;102645.31;4967847;28;20034;-78
2022/10/11 09:31:53;;;;;;;2.92;1.20;;;;;;;29.25;45.12;102639.53;4968897;28;20050;-78
2022/10/11 09:34:22;;;;;;;3.90;1.17;;;;;;;29.77;44.56;102645.22;4966787;28;20118;-78
2022/10/11 09:37:13;;;;;;;6.50;0.90;;;;;;;30.31;44.25;102654.09;4961295;28;20062;-78
2022/10/11 09:39:44;;;;;;;4.57;1.05;;;;;;;30.70;42.53;102659.78;4967384;28;20110;-78
2022/10/11 09:42:11;;;;;;;5.18;1.42;;;;;;;30.15;41.68;102643.88;4965202;28;20030;-78
2022/10/11 09:44:46;;;;;;;4.35;1.20;;;;;;;29.02;42.66;102643.78;4966958;28;20031;-78
2022/10/11 09:47:24;;;;;;;7.28;1.88;;;;;;;27.45;46.00;102636.81;5013123;28;20060;-78
2022/10/11 09:50:02;;;;;;;3.45;1.35;;;;;;;27.61;46.98;102645.47;5007853;28;20505;-78
2022/10/11 09:52:27;;;;;;;2.35;1.35;;;;;;;28.12;47.25;102630.84;5037565;28;20045;-78
2022/10/11 09:54:59;;;;;;;3.03;1.50;;;;;;;28.69;44.22;102622.50;5058327;28;20484;-78
2022/10/11 09:57:32;;;;;;;5.53;1.17;;;;;;;28.36;44.43;102639.16;5059638;28;20449;-79
2022/10/11 10:00:10;;;;;;;3.35;1.27;;;;;;;29.24;45.22;102643.28;5056659;28;20054;-78
2022/10/11 10:02:57;;;;;;;2.80;1.30;;;;;;;31.02;41.11;102648.44;5055822;28;20032;-78
2022/10/11 10:05:25;;;;;;;4.85;1.40;;;;;;;31.40;40.07;102633.25;5057068;28;20037;-78
2022/10/11 10:08:00;;;;;;;2.63;1.50;;;;;;;32.17;40.11;102653.63;5056947;28;20035;-78
2022/10/11 10:10:33;;;;;;;4.57;1.42;;;;;;;32.79;38.91;102645.13;5061854;28;20028;-78
2022/10/11 10:13:04;;;;;;;2.85;1.30;;;;;;;32.19;39.77;102651.47;5059578;28;20485;-78
2022/10/11 10:15:35;;;;;;;4.25;1.40;;;;;;;31.99;40.31;102654.75;5056029;28;20021;-78
2022/10/11 10:18:02;;;;;;;4.25;1.48;;;;;;;31.29;39.50;102654.13;5061544;28;20079;-78
2022/10/11 10:20:33;;;;;;;2.22;1.35;;;;;;;29.32;42.57;102649.22;5056827;28;20033;-78
2022/10/11 10:23:25;;;;;;;2.40;1.25;;;;;;;27.59;44.71;102647.56;5058881;28;20457;-78
2022/10/11 10:25:51;;;;;;;3.85;1.40;;;;;;;26.55;47.00;102636.84;5055312;28;20365;-78
2022/10/11 10:28:25;;;;;;;3.78;1.58;;;;;;;27.23;46.53;102643.66;5055478;28;20036;-78
2022/10/11 10:30:54;;;;;;;3.72;1.55;;;;;;;29.01;43.85;102628.53;5067594;28;20380;-78
2022/10/11 10:33:22;;;;;;;3.72;1.05;;;;;;;29.36;42.88;102640.63;5056688;28;20023;-78
2022/10/11 10:35:53;;;;;;;6.55;1.45;;;;;;;30.55;41.75;102643.13;5067036;28;20397;-78
2022/10/11 10:38:31;;;;;;;3.90;1.70;;;;;;;31.39;41.45;102653.44;5060012;28;20126;-78
2022/10/11 10:41:11;;;;;;;2.58;1.20;;;;;;;30.95;39.23;102642.31;5068527;28;20495;-78
2022/10/11 10:43:39;;;;;;;1.83;1.08;;;;;;;30.96;40.97;102654.84;5062302;28;20025;-78
2022/10/11 10:46:29;;;;;;;3.15;1.42;;;;;;;29.86;41.76;102643.78;5059624;28;20119;-78
2022/10/11 10:49:13;;;;;;;;;;;;;;;28.89;42.01;102643.97;5077638;28;20118;-78
2022/10/11 10:52:16;;;;;;;6.15;1.55;;;;;;;28.08;43.77;102640.50;5063168;28;20001;-78
2022/10/11 10:54:57;;;;;;;2.25;1.60;;;;;;;27.35;46.64;102646.50;5061470;28;20024;-78
2022/10/11 10:57:35;;;;;;;3.65;1.35;;;;;;;26.23;47.16;102649.41;5063771;28;20553;-77
2022/10/11 11:00:12;;;;;;;1.80;1.30;;;;;;;25.13;48.59;102643.47;5058134;28;20516;-77
2022/10/11 11:02:45;;;;;;;3.83;1.75;;;;;;;24.41;50.07;102648.31;5057457;28;20025;-77
2022/10/11 11:05:22;;;;;;;5.50;1.70;;;;;;;23.40;51.62;102640.44;5063722;28;20115;-77
2022/10/11 11:07:55;;;;;;;2.05;1.75;;;;;;;22.64;52.45;102638.09;5065212;28;20036;-77
2022/10/11 11:10:35;;;;;;;3.15;1.65;;;;;;;21.85;54.05;102621.59;5060144;28;20480;-77
2022/10/11 11:13:29;;;;;;;3.20;1.73;;;;;;;21.34;55.89;102641.75;5062865;28;20096;-77
2022/10/11 11:16:05;;;;;;;7.15;2.17;;;;;;;21.05;57.37;102638.91;5061876;28;20052;-78
2022/10/11 11:18:50;;;;;;;2.90;2.45;;;;;;;20.69;59.31;102640.25;5058488;28;20051;-77
2022/10/11 11:21:16;;;;;;;4.82;2.85;;;;;;;20.31;60.99;102641.81;5060242;28;20041;-77
2022/10/11 11:23:52;;;;;;;2.75;2.55;;;;;;;19.88;61.07;102617.09;5065167;28;20423;-77
2022/10/11 11:26:30;;;;;;;5.82;3.72;;;;;;;19.64;61.98;102632.16;5058660;28;20031;-77
2022/10/11 11:29:33;;;;;;;7.70;3.92;;;;;;;19.30;63.03;102633.09;5056673;28;20025;-77